sensor_id;sensor_type;location;lat;lon;timestamp;pressure;altitude;pressure_sealevel;temperature;humidity
68822;BME280;55834;50.870;4.606;2023-02-18T00:02:21;101749.81;;;8.47;69.78
68822;BME280;55834;50.870;4.606;2023-02-18T00:04:46;101756.66;;;8.90;68.07
68822;BME280;55834;50.870;4.606;2023-02-18T00:07:11;101751.44;;;8.82;67.59
68822;BME280;55834;50.870;4.606;2023-02-18T00:09:37;101740.88;;;8.85;67.72
68822;BME280;55834;50.870;4.606;2023-02-18T00:12:03;101742.59;;;8.92;67.45
68822;BME280;55834;50.870;4.606;2023-02-18T00:14:28;101733.91;;;8.73;67.78
68822;BME280;55834;50.870;4.606;2023-02-18T00:16:53;101734.88;;;8.55;68.48
68822;BME280;55834;50.870;4.606;2023-02-18T00:19:19;101727.66;;;8.94;68.74
68822;BME280;55834;50.870;4.606;2023-02-18T00:21:45;101723.09;;;9.19;66.69
68822;BME280;55834;50.870;4.606;2023-02-18T00:24:13;101716.34;;;8.77;68.27
68822;BME280;55834;50.870;4.606;2023-02-18T00:26:41;101721.81;;;8.26;69.94
68822;BME280;55834;50.870;4.606;2023-02-18T00:29:07;101707.72;;;8.44;69.40
68822;BME280;55834;50.870;4.606;2023-02-18T00:31:34;101714.78;;;8.30;70.60
68822;BME280;55834;50.870;4.606;2023-02-18T00:33:59;101711.34;;;8.12;70.28
68822;BME280;55834;50.870;4.606;2023-02-18T00:36:26;101695.38;;;8.54;69.22
68822;BME280;55834;50.870;4.606;2023-02-18T00:38:56;101700.50;;;8.85;67.95
68822;BME280;55834;50.870;4.606;2023-02-18T00:41:24;101699.69;;;8.70;68.96
68822;BME280;55834;50.870;4.606;2023-02-18T00:43:50;101699.25;;;9.42;67.73
68822;BME280;55834;50.870;4.606;2023-02-18T00:46:15;101703.63;;;9.43;65.73
68822;BME280;55834;50.870;4.606;2023-02-18T00:48:40;101704.97;;;8.75;68.37
68822;BME280;55834;50.870;4.606;2023-02-18T00:51:06;101694.59;;;8.43;68.54
68822;BME280;55834;50.870;4.606;2023-02-18T00:53:32;101698.91;;;8.56;68.80
68822;BME280;55834;50.870;4.606;2023-02-18T00:55:58;101696.16;;;8.76;68.32
68822;BME280;55834;50.870;4.606;2023-02-18T00:58:24;101689.03;;;8.93;67.63
68822;BME280;55834;50.870;4.606;2023-02-18T01:00:50;101677.44;;;9.22;66.91
68822;BME280;55834;50.870;4.606;2023-02-18T01:03:15;101679.53;;;8.68;67.91
68822;BME280;55834;50.870;4.606;2023-02-18T01:05:41;101663.66;;;8.83;68.78
68822;BME280;55834;50.870;4.606;2023-02-18T01:08:08;101662.19;;;8.31;70.56
68822;BME280;55834;50.870;4.606;2023-02-18T01:10:34;101671.03;;;7.87;71.52
68822;BME280;55834;50.870;4.606;2023-02-18T01:13:00;101662.34;;;7.45;72.31
68822;BME280;55834;50.870;4.606;2023-02-18T01:15:25;101653.56;;;7.50;73.35
68822;BME280;55834;50.870;4.606;2023-02-18T01:17:51;101664.06;;;7.53;72.48
68822;BME280;55834;50.870;4.606;2023-02-18T01:20:17;101662.25;;;8.08;71.93
68822;BME280;55834;50.870;4.606;2023-02-18T01:22:43;101655.75;;;8.81;69.66
68822;BME280;55834;50.870;4.606;2023-02-18T01:25:09;101659.06;;;9.11;67.70
68822;BME280;55834;50.870;4.606;2023-02-18T01:27:36;101653.84;;;9.05;67.28
68822;BME280;55834;50.870;4.606;2023-02-18T01:30:03;101644.41;;;8.73;69.08
68822;BME280;55834;50.870;4.606;2023-02-18T01:32:29;101649.91;;;8.29;69.73
68822;BME280;55834;50.870;4.606;2023-02-18T01:34:54;101648.91;;;8.53;69.36
68822;BME280;55834;50.870;4.606;2023-02-18T01:37:19;101649.63;;;8.79;68.30
68822;BME280;55834;50.870;4.606;2023-02-18T01:39:45;101655.97;;;8.43;68.68
68822;BME280;55834;50.870;4.606;2023-02-18T01:42:22;101651.50;;;8.61;68.90
68822;BME280;55834;50.870;4.606;2023-02-18T01:44:48;101643.75;;;8.31;69.18
68822;BME280;55834;50.870;4.606;2023-02-18T01:47:14;101646.47;;;8.10;71.45
68822;BME280;55834;50.870;4.606;2023-02-18T01:49:40;101642.00;;;8.32;70.42
68822;BME280;55834;50.870;4.606;2023-02-18T01:52:09;101640.81;;;8.82;68.85
68822;BME280;55834;50.870;4.606;2023-02-18T01:54:38;101642.84;;;8.31;70.03
68822;BME280;55834;50.870;4.606;2023-02-18T01:57:09;101641.78;;;8.70;68.45
68822;BME280;55834;50.870;4.606;2023-02-18T01:59:42;101642.94;;;8.12;70.33
68822;BME280;55834;50.870;4.606;2023-02-18T02:02:13;101634.94;;;8.42;69.27
68822;BME280;55834;50.870;4.606;2023-02-18T02:04:39;101635.97;;;7.99;71.00
68822;BME280;55834;50.870;4.606;2023-02-18T02:07:05;101634.03;;;8.46;69.21
68822;BME280;55834;50.870;4.606;2023-02-18T02:09:31;101638.59;;;7.99;70.71
68822;BME280;55834;50.870;4.606;2023-02-18T02:17:27;101620.53;;;8.96;67.19
68822;BME280;55834;50.870;4.606;2023-02-18T02:20:14;101618.34;;;8.26;70.57
68822;BME280;55834;50.870;4.606;2023-02-18T02:33:28;101604.16;;;8.57;69.68
68822;BME280;55834;50.870;4.606;2023-02-18T02:39:00;101602.63;;;7.98;71.86
68822;BME280;55834;50.870;4.606;2023-02-18T02:41:51;101592.22;;;7.69;72.86
68822;BME280;55834;50.870;4.606;2023-02-18T02:44:23;101597.34;;;8.13;71.81
68822;BME280;55834;50.870;4.606;2023-02-18T02:46:59;101595.63;;;8.06;71.78
68822;BME280;55834;50.870;4.606;2023-02-18T02:52:03;101583.09;;;8.54;70.01
68822;BME280;55834;50.870;4.606;2023-02-18T02:54:30;101586.84;;;8.10;70.27
68822;BME280;55834;50.870;4.606;2023-02-18T02:59:59;101582.38;;;8.25;71.46
68822;BME280;55834;50.870;4.606;2023-02-18T03:11:13;101578.13;;;7.99;71.46
68822;BME280;55834;50.870;4.606;2023-02-18T03:14:02;101577.19;;;8.17;70.31
68822;BME280;55834;50.870;4.606;2023-02-18T03:16:52;101573.22;;;8.87;68.52
68822;BME280;55834;50.870;4.606;2023-02-18T03:19:30;101578.91;;;8.21;69.81
68822;BME280;55834;50.870;4.606;2023-02-18T03:22:22;101564.03;;;8.05;69.73
68822;BME280;55834;50.870;4.606;2023-02-18T03:24:52;101557.00;;;8.21;70.63
68822;BME280;55834;50.870;4.606;2023-02-18T03:27:28;101562.34;;;7.93;71.25
68822;BME280;55834;50.870;4.606;2023-02-18T03:30:02;101557.91;;;8.07;70.73
68822;BME280;55834;50.870;4.606;2023-02-18T03:32:30;101554.41;;;8.14;70.01
68822;BME280;55834;50.870;4.606;2023-02-18T03:35:02;101544.88;;;7.75;71.33
68822;BME280;55834;50.870;4.606;2023-02-18T03:37:31;101531.50;;;8.32;70.46
68822;BME280;55834;50.870;4.606;2023-02-18T03:40:00;101540.38;;;8.09;70.75
68822;BME280;55834;50.870;4.606;2023-02-18T03:42:26;101542.19;;;7.94;70.57
68822;BME280;55834;50.870;4.606;2023-02-18T03:44:52;101534.22;;;8.15;71.24
68822;BME280;55834;50.870;4.606;2023-02-18T03:47:18;101533.56;;;7.62;71.83
68822;BME280;55834;50.870;4.606;2023-02-18T03:49:43;101531.44;;;8.36;69.96
68822;BME280;55834;50.870;4.606;2023-02-18T03:52:09;101538.94;;;6.90;73.87
68822;BME280;55834;50.870;4.606;2023-02-18T03:54:35;101528.25;;;7.75;72.48
68822;BME280;55834;50.870;4.606;2023-02-18T03:57:00;101530.97;;;7.50;72.42
68822;BME280;55834;50.870;4.606;2023-02-18T03:59:26;101532.75;;;7.31;73.02
68822;BME280;55834;50.870;4.606;2023-02-18T04:01:51;101521.88;;;8.26;71.35
68822;BME280;55834;50.870;4.606;2023-02-18T04:04:16;101518.53;;;7.87;70.97
68822;BME280;55834;50.870;4.606;2023-02-18T04:06:42;101513.25;;;7.95;70.85
68822;BME280;55834;50.870;4.606;2023-02-18T04:09:07;101505.25;;;8.18;70.83
68822;BME280;55834;50.870;4.606;2023-02-18T04:11:35;101523.78;;;7.87;70.58
68822;BME280;55834;50.870;4.606;2023-02-18T04:14:00;101519.41;;;7.89;71.51
68822;BME280;55834;50.870;4.606;2023-02-18T04:16:26;101506.19;;;8.09;70.50
68822;BME280;55834;50.870;4.606;2023-02-18T04:18:51;101500.88;;;8.20;69.95
68822;BME280;55834;50.870;4.606;2023-02-18T04:21:16;101508.59;;;8.45;68.21
68822;BME280;55834;50.870;4.606;2023-02-18T04:23:42;101500.22;;;7.69;70.95
68822;BME280;55834;50.870;4.606;2023-02-18T04:26:07;101490.50;;;7.88;70.83
68822;BME280;55834;50.870;4.606;2023-02-18T04:28:32;101490.53;;;7.80;71.43
68822;BME280;55834;50.870;4.606;2023-02-18T04:30:58;101493.97;;;7.98;70.15
68822;BME280;55834;50.870;4.606;2023-02-18T04:33:23;101483.22;;;8.38;69.93
68822;BME280;55834;50.870;4.606;2023-02-18T04:35:48;101489.38;;;8.35;68.73
68822;BME280;55834;50.870;4.606;2023-02-18T04:38:14;101478.00;;;8.31;69.07
68822;BME280;55834;50.870;4.606;2023-02-18T04:40:39;101482.41;;;8.26;69.70
68822;BME280;55834;50.870;4.606;2023-02-18T04:43:05;101492.97;;;8.22;69.19
68822;BME280;55834;50.870;4.606;2023-02-18T04:45:30;101497.41;;;8.10;69.97
68822;BME280;55834;50.870;4.606;2023-02-18T04:47:56;101506.34;;;7.73;71.52
68822;BME280;55834;50.870;4.606;2023-02-18T04:50:21;101497.50;;;7.87;70.87
68822;BME280;55834;50.870;4.606;2023-02-18T04:52:47;101502.03;;;7.62;71.14
68822;BME280;55834;50.870;4.606;2023-02-18T04:55:13;101500.91;;;8.17;69.65
68822;BME280;55834;50.870;4.606;2023-02-18T04:57:38;101500.88;;;8.19;69.51
68822;BME280;55834;50.870;4.606;2023-02-18T05:00:05;101500.06;;;8.09;69.26
68822;BME280;55834;50.870;4.606;2023-02-18T05:02:31;101493.78;;;8.30;69.47
68822;BME280;55834;50.870;4.606;2023-02-18T05:04:57;101511.44;;;8.12;69.74
68822;BME280;55834;50.870;4.606;2023-02-18T05:07:22;101509.63;;;8.21;69.96
68822;BME280;55834;50.870;4.606;2023-02-18T05:09:49;101508.88;;;7.94;70.53
68822;BME280;55834;50.870;4.606;2023-02-18T05:12:14;101510.56;;;8.17;70.14
68822;BME280;55834;50.870;4.606;2023-02-18T05:14:40;101514.09;;;8.02;69.28
68822;BME280;55834;50.870;4.606;2023-02-18T05:17:05;101515.16;;;7.65;71.00
68822;BME280;55834;50.870;4.606;2023-02-18T05:19:30;101503.69;;;7.82;70.83
68822;BME280;55834;50.870;4.606;2023-02-18T05:21:56;101499.84;;;8.43;69.21
68822;BME280;55834;50.870;4.606;2023-02-18T05:24:21;101501.69;;;8.31;68.14
68822;BME280;55834;50.870;4.606;2023-02-18T05:26:47;101499.03;;;8.30;68.22
68822;BME280;55834;50.870;4.606;2023-02-18T05:29:12;101493.06;;;8.08;68.82
68822;BME280;55834;50.870;4.606;2023-02-18T05:31:37;101482.41;;;8.25;68.86
68822;BME280;55834;50.870;4.606;2023-02-18T05:34:03;101479.78;;;8.25;68.79
68822;BME280;55834;50.870;4.606;2023-02-18T05:36:30;101487.63;;;8.32;69.19
68822;BME280;55834;50.870;4.606;2023-02-18T05:38:55;101483.22;;;8.38;68.15
68822;BME280;55834;50.870;4.606;2023-02-18T05:41:20;101462.44;;;7.90;70.07
68822;BME280;55834;50.870;4.606;2023-02-18T05:43:46;101470.59;;;7.33;70.30
68822;BME280;55834;50.870;4.606;2023-02-18T05:46:30;101470.47;;;7.58;70.01
68822;BME280;55834;50.870;4.606;2023-02-18T05:48:55;101481.16;;;7.10;69.85
68822;BME280;55834;50.870;4.606;2023-02-18T05:51:20;101489.00;;;7.22;70.42
68822;BME280;55834;50.870;4.606;2023-02-18T05:53:46;101455.56;;;7.67;68.72
68822;BME280;55834;50.870;4.606;2023-02-18T05:56:11;101466.91;;;7.74;68.33
68822;BME280;55834;50.870;4.606;2023-02-18T05:58:36;101457.44;;;7.32;69.88
68822;BME280;55834;50.870;4.606;2023-02-18T06:01:02;101478.28;;;7.78;68.53
68822;BME280;55834;50.870;4.606;2023-02-18T06:03:28;101485.56;;;7.07;70.46
68822;BME280;55834;50.870;4.606;2023-02-18T06:05:53;101471.38;;;7.52;68.82
68822;BME280;55834;50.870;4.606;2023-02-18T06:08:18;101463.34;;;7.81;67.71
68822;BME280;55834;50.870;4.606;2023-02-18T06:10:46;101460.81;;;7.71;67.46
68822;BME280;55834;50.870;4.606;2023-02-18T06:13:12;101467.59;;;8.10;66.46
68822;BME280;55834;50.870;4.606;2023-02-18T06:15:38;101469.63;;;7.50;67.77
68822;BME280;55834;50.870;4.606;2023-02-18T06:18:05;101466.69;;;8.16;65.87
68822;BME280;55834;50.870;4.606;2023-02-18T06:20:30;101462.31;;;8.13;65.24
68822;BME280;55834;50.870;4.606;2023-02-18T06:22:56;101456.88;;;8.39;64.56
68822;BME280;55834;50.870;4.606;2023-02-18T06:25:21;101453.44;;;8.31;63.83
68822;BME280;55834;50.870;4.606;2023-02-18T06:27:46;101470.13;;;8.27;63.88
68822;BME280;55834;50.870;4.606;2023-02-18T06:30:12;101461.78;;;7.43;66.13
68822;BME280;55834;50.870;4.606;2023-02-18T06:32:37;101469.63;;;7.57;65.49
68822;BME280;55834;50.870;4.606;2023-02-18T06:35:03;101448.75;;;7.16;66.75
68822;BME280;55834;50.870;4.606;2023-02-18T06:37:29;101461.94;;;6.82;67.09
68822;BME280;55834;50.870;4.606;2023-02-18T06:39:55;101468.97;;;6.69;66.45
68822;BME280;55834;50.870;4.606;2023-02-18T06:42:20;101474.09;;;7.34;63.68
68822;BME280;55834;50.870;4.606;2023-02-18T06:44:45;101479.31;;;7.44;63.53
68822;BME280;55834;50.870;4.606;2023-02-18T06:47:21;101481.94;;;7.40;63.88
68822;BME280;55834;50.870;4.606;2023-02-18T06:49:49;101473.19;;;7.35;64.64
68822;BME280;55834;50.870;4.606;2023-02-18T06:52:15;101466.84;;;7.86;63.29
68822;BME280;55834;50.870;4.606;2023-02-18T06:54:40;101465.09;;;7.84;62.64
68822;BME280;55834;50.870;4.606;2023-02-18T06:57:05;101466.78;;;7.96;62.87
68822;BME280;55834;50.870;4.606;2023-02-18T06:59:31;101463.50;;;7.49;63.23
68822;BME280;55834;50.870;4.606;2023-02-18T07:01:57;101470.25;;;8.10;62.88
68822;BME280;55834;50.870;4.606;2023-02-18T07:04:22;101458.88;;;8.00;62.89
68822;BME280;55834;50.870;4.606;2023-02-18T07:06:47;101466.13;;;7.55;63.42
68822;BME280;55834;50.870;4.606;2023-02-18T07:09:13;101456.63;;;7.22;64.51
68822;BME280;55834;50.870;4.606;2023-02-18T07:11:38;101455.63;;;7.52;63.60
68822;BME280;55834;50.870;4.606;2023-02-18T07:14:03;101456.41;;;7.71;63.72
68822;BME280;55834;50.870;4.606;2023-02-18T07:16:29;101468.66;;;7.77;63.69
68822;BME280;55834;50.870;4.606;2023-02-18T07:18:54;101459.59;;;8.30;61.88
68822;BME280;55834;50.870;4.606;2023-02-18T07:21:19;101451.91;;;7.90;62.21
68822;BME280;55834;50.870;4.606;2023-02-18T07:23:45;101470.25;;;8.07;62.28
68822;BME280;55834;50.870;4.606;2023-02-18T07:26:12;101468.81;;;7.32;64.33
68822;BME280;55834;50.870;4.606;2023-02-18T07:28:38;101451.91;;;7.95;63.59
68822;BME280;55834;50.870;4.606;2023-02-18T07:31:04;101462.38;;;8.02;62.90
68822;BME280;55834;50.870;4.606;2023-02-18T07:33:30;101463.59;;;7.34;64.65
68822;BME280;55834;50.870;4.606;2023-02-18T07:35:57;101470.47;;;7.64;63.77
68822;BME280;55834;50.870;4.606;2023-02-18T07:38:24;101480.31;;;6.91;65.60
68822;BME280;55834;50.870;4.606;2023-02-18T07:40:50;101474.97;;;7.34;64.90
68822;BME280;55834;50.870;4.606;2023-02-18T07:43:17;101467.00;;;7.57;64.16
68822;BME280;55834;50.870;4.606;2023-02-18T07:45:43;101475.00;;;7.17;65.63
68822;BME280;55834;50.870;4.606;2023-02-18T07:48:08;101474.13;;;7.21;64.75
68822;BME280;55834;50.870;4.606;2023-02-18T07:50:34;101472.19;;;7.71;64.66
68822;BME280;55834;50.870;4.606;2023-02-18T07:53:02;101467.44;;;8.33;62.17
68822;BME280;55834;50.870;4.606;2023-02-18T07:55:27;101471.16;;;8.06;63.76
68822;BME280;55834;50.870;4.606;2023-02-18T07:58:23;101468.75;;;7.55;63.94
68822;BME280;55834;50.870;4.606;2023-02-18T08:00:50;101475.75;;;7.58;64.55
68822;BME280;55834;50.870;4.606;2023-02-18T08:03:17;101480.22;;;7.27;64.39
68822;BME280;55834;50.870;4.606;2023-02-18T08:05:43;101478.19;;;7.93;62.65
68822;BME280;55834;50.870;4.606;2023-02-18T08:08:20;101482.59;;;7.94;62.49
68822;BME280;55834;50.870;4.606;2023-02-18T08:10:47;101477.47;;;7.68;63.21
68822;BME280;55834;50.870;4.606;2023-02-18T08:13:12;101481.75;;;7.84;62.92
68822;BME280;55834;50.870;4.606;2023-02-18T08:15:38;101489.34;;;8.36;61.15
68822;BME280;55834;50.870;4.606;2023-02-18T08:18:05;101484.59;;;7.29;63.33
68822;BME280;55834;50.870;4.606;2023-02-18T08:20:35;101483.69;;;7.41;63.50
68822;BME280;55834;50.870;4.606;2023-02-18T08:23:01;101496.00;;;7.22;63.60
68822;BME280;55834;50.870;4.606;2023-02-18T08:25:26;101494.28;;;7.07;64.22
68822;BME280;55834;50.870;4.606;2023-02-18T08:27:52;101496.88;;;7.19;64.25
68822;BME280;55834;50.870;4.606;2023-02-18T08:30:17;101513.34;;;7.77;62.32
68822;BME280;55834;50.870;4.606;2023-02-18T08:32:43;101491.53;;;7.59;63.32
68822;BME280;55834;50.870;4.606;2023-02-18T08:35:09;101498.56;;;7.48;62.41
68822;BME280;55834;50.870;4.606;2023-02-18T08:37:35;101496.81;;;7.47;63.26
68822;BME280;55834;50.870;4.606;2023-02-18T08:40:01;101510.00;;;7.30;63.29
68822;BME280;55834;50.870;4.606;2023-02-18T08:42:26;101490.50;;;7.89;61.16
68822;BME280;55834;50.870;4.606;2023-02-18T08:44:52;101493.16;;;7.79;61.85
68822;BME280;55834;50.870;4.606;2023-02-18T08:47:17;101490.28;;;8.28;60.48
68822;BME280;55834;50.870;4.606;2023-02-18T08:49:43;101480.78;;;8.04;60.74
68822;BME280;55834;50.870;4.606;2023-02-18T08:52:08;101482.84;;;7.39;62.12
68822;BME280;55834;50.870;4.606;2023-02-18T08:54:34;101477.03;;;8.42;60.88
68822;BME280;55834;50.870;4.606;2023-02-18T08:56:59;101479.94;;;7.97;61.41
68822;BME280;55834;50.870;4.606;2023-02-18T08:59:25;101476.41;;;8.00;60.96
68822;BME280;55834;50.870;4.606;2023-02-18T09:01:51;101473.00;;;7.82;61.37
68822;BME280;55834;50.870;4.606;2023-02-18T09:04:16;101467.59;;;8.10;61.00
68822;BME280;55834;50.870;4.606;2023-02-18T09:06:42;101465.94;;;7.87;61.41
68822;BME280;55834;50.870;4.606;2023-02-18T09:09:08;101469.94;;;8.53;60.28
68822;BME280;55834;50.870;4.606;2023-02-18T09:11:34;101458.94;;;7.94;61.49
68822;BME280;55834;50.870;4.606;2023-02-18T09:14:00;101473.75;;;8.01;61.76
68822;BME280;55834;50.870;4.606;2023-02-18T09:16:25;101462.44;;;7.91;61.56
68822;BME280;55834;50.870;4.606;2023-02-18T09:18:52;101465.88;;;8.01;60.77
68822;BME280;55834;50.870;4.606;2023-02-18T09:21:18;101464.25;;;7.76;61.58
68822;BME280;55834;50.870;4.606;2023-02-18T09:23:45;101465.09;;;7.85;61.71
68822;BME280;55834;50.870;4.606;2023-02-18T09:26:13;101465.19;;;7.68;62.02
68822;BME280;55834;50.870;4.606;2023-02-18T09:28:39;101472.22;;;7.60;61.69
68822;BME280;55834;50.870;4.606;2023-02-18T09:31:13;101443.91;;;8.14;60.90
68822;BME280;55834;50.870;4.606;2023-02-18T09:33:43;101461.69;;;7.63;62.99
68822;BME280;55834;50.870;4.606;2023-02-18T09:36:09;101466.13;;;7.55;62.26
68822;BME280;55834;50.870;4.606;2023-02-18T09:38:35;101459.06;;;7.66;62.72
68822;BME280;55834;50.870;4.606;2023-02-18T09:41:03;101456.59;;;7.28;63.23
68822;BME280;55834;50.870;4.606;2023-02-18T09:43:41;101477.38;;;7.88;62.00
68822;BME280;55834;50.870;4.606;2023-02-18T09:46:21;101466.75;;;8.06;61.18
68822;BME280;55834;50.870;4.606;2023-02-18T09:48:47;101477.94;;;8.39;61.33
68822;BME280;55834;50.870;4.606;2023-02-18T09:51:14;101480.63;;;8.31;61.03
68822;BME280;55834;50.870;4.606;2023-02-18T09:53:41;101467.03;;;8.82;60.00
68822;BME280;55834;50.870;4.606;2023-02-18T09:56:14;101480.69;;;8.21;60.75
68822;BME280;55834;50.870;4.606;2023-02-18T09:58:40;101488.81;;;7.70;62.73
68822;BME280;55834;50.870;4.606;2023-02-18T10:03:40;101484.50;;;7.57;63.17
68822;BME280;55834;50.870;4.606;2023-02-18T10:06:26;101477.31;;;7.96;62.58
68822;BME280;55834;50.870;4.606;2023-02-18T10:08:54;101480.78;;;8.07;63.50
68822;BME280;55834;50.870;4.606;2023-02-18T10:11:32;101470.44;;;7.68;63.42
68822;BME280;55834;50.870;4.606;2023-02-18T10:14:00;101478.19;;;7.99;63.25
68822;BME280;55834;50.870;4.606;2023-02-18T10:16:27;101484.13;;;8.32;62.47
68822;BME280;55834;50.870;4.606;2023-02-18T10:18:55;101479.06;;;8.00;62.69
68822;BME280;55834;50.870;4.606;2023-02-18T10:21:25;101489.19;;;8.58;61.79
68822;BME280;55834;50.870;4.606;2023-02-18T10:24:05;101493.91;;;8.10;63.00
68822;BME280;55834;50.870;4.606;2023-02-18T10:26:34;101500.06;;;8.01;63.25
68822;BME280;55834;50.870;4.606;2023-02-18T10:29:01;101492.25;;;7.87;63.97
68822;BME280;55834;50.870;4.606;2023-02-18T10:31:30;101502.03;;;7.58;64.79
68822;BME280;55834;50.870;4.606;2023-02-18T10:34:03;101481.66;;;8.07;63.55
68822;BME280;55834;50.870;4.606;2023-02-18T10:36:46;101480.72;;;8.16;63.35
68822;BME280;55834;50.870;4.606;2023-02-18T10:39:41;101494.09;;;7.72;64.91
68822;BME280;55834;50.870;4.606;2023-02-18T10:50:39;101483.09;;;8.53;62.28
68822;BME280;55834;50.870;4.606;2023-02-18T10:53:34;101490.09;;;8.54;62.29
68822;BME280;55834;50.870;4.606;2023-02-18T10:56:00;101484.59;;;8.83;61.61
68822;BME280;55834;50.870;4.606;2023-02-18T10:58:41;101487.06;;;7.77;63.98
68822;BME280;55834;50.870;4.606;2023-02-18T11:01:14;101485.09;;;8.16;63.62
68822;BME280;55834;50.870;4.606;2023-02-18T11:04:02;101493.63;;;8.54;63.41
68822;BME280;55834;50.870;4.606;2023-02-18T11:08:55;101488.91;;;8.89;61.52
68822;BME280;55834;50.870;4.606;2023-02-18T11:11:29;101491.00;;;8.50;63.32
68822;BME280;55834;50.870;4.606;2023-02-18T11:13:59;101499.09;;;8.22;63.37
68822;BME280;55834;50.870;4.606;2023-02-18T11:16:38;101508.78;;;8.20;64.41
68822;BME280;55834;50.870;4.606;2023-02-18T11:19:04;101511.50;;;7.96;64.10
68822;BME280;55834;50.870;4.606;2023-02-18T11:21:34;101508.63;;;8.43;63.60
68822;BME280;55834;50.870;4.606;2023-02-18T11:24:09;101514.63;;;8.61;62.98
68822;BME280;55834;50.870;4.606;2023-02-18T11:26:39;101502.69;;;8.12;64.56
68822;BME280;55834;50.870;4.606;2023-02-18T11:29:11;101507.13;;;7.93;64.66
68822;BME280;55834;50.870;4.606;2023-02-18T11:31:43;101508.50;;;8.54;62.97
68822;BME280;55834;50.870;4.606;2023-02-18T11:34:16;101502.31;;;8.64;62.96
68822;BME280;55834;50.870;4.606;2023-02-18T11:36:43;101509.03;;;9.00;62.15
68822;BME280;55834;50.870;4.606;2023-02-18T11:39:19;101508.00;;;7.94;65.61
68822;BME280;55834;50.870;4.606;2023-02-18T11:41:52;101505.34;;;8.06;64.63
68822;BME280;55834;50.870;4.606;2023-02-18T11:44:27;101501.50;;;8.53;63.82
68822;BME280;55834;50.870;4.606;2023-02-18T11:49:23;101507.50;;;8.75;62.50
68822;BME280;55834;50.870;4.606;2023-02-18T11:51:49;101505.44;;;9.09;61.70
68822;BME280;55834;50.870;4.606;2023-02-18T11:54:28;101508.69;;;8.31;64.25
68822;BME280;55834;50.870;4.606;2023-02-18T11:57:04;101504.34;;;8.27;64.35
68822;BME280;55834;50.870;4.606;2023-02-18T11:59:35;101495.13;;;8.83;62.42
68822;BME280;55834;50.870;4.606;2023-02-18T12:04:51;101496.66;;;9.05;62.09
68822;BME280;55834;50.870;4.606;2023-02-18T12:07:28;101487.59;;;9.31;61.18
68822;BME280;55834;50.870;4.606;2023-02-18T12:10:09;101488.13;;;9.67;60.08
68822;BME280;55834;50.870;4.606;2023-02-18T12:13:15;101490.09;;;8.55;62.64
68822;BME280;55834;50.870;4.606;2023-02-18T12:18:37;101492.72;;;8.55;63.50
68822;BME280;55834;50.870;4.606;2023-02-18T12:21:28;101495.31;;;8.63;62.93
68822;BME280;55834;50.870;4.606;2023-02-18T12:24:17;101501.75;;;9.24;62.08
68822;BME280;55834;50.870;4.606;2023-02-18T12:27:23;101497.66;;;8.94;61.19
68822;BME280;55834;50.870;4.606;2023-02-18T12:30:10;101502.50;;;8.36;63.10
68822;BME280;55834;50.870;4.606;2023-02-18T12:32:52;101496.00;;;8.82;62.19
68822;BME280;55834;50.870;4.606;2023-02-18T12:43:33;101492.84;;;8.39;63.68
68822;BME280;55834;50.870;4.606;2023-02-18T12:46:25;101486.91;;;9.14;62.10
68822;BME280;55834;50.870;4.606;2023-02-18T12:48:57;101495.88;;;8.96;62.14
68822;BME280;55834;50.870;4.606;2023-02-18T13:08:17;101499.66;;;8.63;65.69
68822;BME280;55834;50.870;4.606;2023-02-18T13:13:25;101504.03;;;8.65;66.70
68822;BME280;55834;50.870;4.606;2023-02-18T13:16:21;101515.25;;;8.89;65.44
68822;BME280;55834;50.870;4.606;2023-02-18T13:21:22;101509.81;;;9.05;65.39
68822;BME280;55834;50.870;4.606;2023-02-18T13:23:55;101486.38;;;9.64;63.96
68822;BME280;55834;50.870;4.606;2023-02-18T13:26:21;101500.88;;;9.22;64.61
68822;BME280;55834;50.870;4.606;2023-02-18T13:29:28;101502.47;;;9.40;66.02
68822;BME280;55834;50.870;4.606;2023-02-18T13:35:05;101490.81;;;8.74;67.55
68822;BME280;55834;50.870;4.606;2023-02-18T13:40:57;101498.72;;;8.74;66.41
68822;BME280;55834;50.870;4.606;2023-02-18T13:48:51;101497.66;;;8.95;66.17
68822;BME280;55834;50.870;4.606;2023-02-18T13:54:28;101492.03;;;8.30;69.02
68822;BME280;55834;50.870;4.606;2023-02-18T13:57:00;101498.66;;;8.79;68.33
68822;BME280;55834;50.870;4.606;2023-02-18T13:59:43;101493.66;;;8.51;69.27
68822;BME280;55834;50.870;4.606;2023-02-18T14:09:44;101487.56;;;8.42;68.48
68822;BME280;55834;50.870;4.606;2023-02-18T14:15:00;101488.75;;;9.07;67.99
68822;BME280;55834;50.870;4.606;2023-02-18T14:17:31;101499.44;;;8.90;67.57
68822;BME280;55834;50.870;4.606;2023-02-18T14:22:47;101487.16;;;8.92;68.75
68822;BME280;55834;50.870;4.606;2023-02-18T14:27:39;101492.44;;;8.89;68.13
68822;BME280;55834;50.870;4.606;2023-02-18T14:30:14;101489.06;;;8.73;67.26
68822;BME280;55834;50.870;4.606;2023-02-18T14:32:41;101490.44;;;8.06;69.35
68822;BME280;55834;50.870;4.606;2023-02-18T14:35:28;101495.81;;;7.73;70.26
68822;BME280;55834;50.870;4.606;2023-02-18T14:43:32;101481.25;;;8.63;69.01
68822;BME280;55834;50.870;4.606;2023-02-18T14:46:10;101490.63;;;8.96;67.37
68822;BME280;55834;50.870;4.606;2023-02-18T14:51:43;101472.31;;;8.84;67.81
68822;BME280;55834;50.870;4.606;2023-02-18T14:54:15;101470.41;;;8.96;67.02
68822;BME280;55834;50.870;4.606;2023-02-18T14:57:02;101476.25;;;8.32;67.62
68822;BME280;55834;50.870;4.606;2023-02-18T14:59:33;101465.50;;;8.58;66.93
68822;BME280;55834;50.870;4.606;2023-02-18T15:02:00;101465.44;;;8.69;66.94
68822;BME280;55834;50.870;4.606;2023-02-18T15:04:26;101469.94;;;8.54;67.07
68822;BME280;55834;50.870;4.606;2023-02-18T15:07:03;101478.94;;;8.21;67.25
68822;BME280;55834;50.870;4.606;2023-02-18T15:09:29;101472.69;;;8.38;68.80
68822;BME280;55834;50.870;4.606;2023-02-18T15:12:05;101481.81;;;8.98;65.79
68822;BME280;55834;50.870;4.606;2023-02-18T15:14:42;101476.47;;;7.94;68.96
68822;BME280;55834;50.870;4.606;2023-02-18T15:17:18;101466.00;;;8.98;66.77